Time;durP1;ratioP1;P1;durP2;ratioP2;P2;SDS_P1;SDS_P2;PMS_P1;PMS_P2;Temp;Humidity;BMP_temperature;BMP_pressure;BME280_temperature;BME280_humidity;BME280_pressure;Samples;Min_cycle;Max_cycle;Signal;HPM_P1;HPM_P2
2022/07/21 00:01:01;;;;;;;2.83;2.23;;;;;;;22.82;53.71;100754.41;5046790;28;20683;-73
2022/07/21 00:03:27;;;;;;;2.87;2.30;;;;;;;22.74;54.06;100748.81;5047528;28;20193;-73
2022/07/21 00:05:53;;;;;;;4.10;2.70;;;;;;;22.66;53.85;100742.28;5045929;28;20393;-72
2022/07/21 00:08:20;;;;;;;2.53;2.30;;;;;;;22.65;53.78;100740.56;5045721;28;20191;-72
2022/07/21 00:10:48;;;;;;;3.23;2.03;;;;;;;22.67;54.42;100737.81;5046314;28;20222;-73
2022/07/21 00:13:14;;;;;;;2.93;2.40;;;;;;;22.64;54.69;100730.09;5043146;28;20591;-72
2022/07/21 00:15:41;;;;;;;3.07;2.03;;;;;;;22.62;54.81;100729.34;5048751;28;20611;-73
2022/07/21 00:18:07;;;;;;;3.47;2.40;;;;;;;22.67;54.15;100727.19;5062673;22;20226;-73
2022/07/21 00:20:34;;;;;;;3.20;2.43;;;;;;;22.71;54.44;100726.00;5041522;28;20627;-73
2022/07/21 00:23:00;;;;;;;4.10;2.50;;;;;;;22.72;54.43;100722.38;5018188;28;20195;-74
2022/07/21 00:25:27;;;;;;;4.60;2.50;;;;;;;22.67;55.35;100728.03;5028958;28;20583;-73
2022/07/21 00:27:55;;;;;;;3.60;2.27;;;;;;;22.63;55.28;100733.69;5020962;28;20228;-73
2022/07/21 00:30:22;;;;;;;3.20;2.70;;;;;;;22.56;54.70;100721.84;5021114;28;20198;-73
2022/07/21 00:32:48;;;;;;;5.17;2.67;;;;;;;22.54;55.02;100727.25;5031725;28;20631;-74
2022/07/21 00:35:16;;;;;;;4.33;2.60;;;;;;;22.53;55.73;100727.38;5032113;28;20259;-74
2022/07/21 00:37:43;;;;;;;2.90;2.60;;;;;;;22.45;55.81;100734.09;5032224;28;20216;-74
2022/07/21 00:40:13;;;;;;;2.70;2.50;;;;;;;22.38;55.75;100724.91;5022371;28;20196;-73
2022/07/21 00:42:40;;;;;;;3.17;2.53;;;;;;;22.33;55.91;100721.75;5029181;28;20612;-73
2022/07/21 00:45:09;;;;;;;3.23;2.30;;;;;;;22.31;56.87;100728.97;5048122;28;20192;-73
2022/07/21 00:47:37;;;;;;;2.70;2.13;;;;;;;22.26;55.69;100731.09;5010498;28;20238;-74
2022/07/21 00:50:07;;;;;;;3.17;2.50;;;;;;;22.26;56.24;100729.28;5019657;28;20196;-73
2022/07/21 00:52:34;;;;;;;3.47;2.60;;;;;;;22.28;56.21;100735.34;5004135;28;20224;-73
2022/07/21 00:55:01;;;;;;;3.67;2.53;;;;;;;22.28;56.87;100729.19;5026823;28;20200;-73
2022/07/21 00:57:28;;;;;;;3.93;2.90;;;;;;;22.20;57.00;100729.75;5045583;28;20294;-74
2022/07/21 00:59:55;;;;;;;3.43;2.63;;;;;;;22.11;57.41;100728.59;5026619;28;20196;-73
2022/07/21 01:02:22;;;;;;;3.10;2.60;;;;;;;22.02;58.53;100721.31;5028421;28;20207;-74
2022/07/21 01:04:49;;;;;;;3.10;2.50;;;;;;;21.96;58.04;100739.50;5030657;28;20204;-73
2022/07/21 01:07:19;;;;;;;2.73;2.17;;;;;;;21.85;60.37;100741.09;5037662;28;20227;-73
2022/07/21 01:09:45;;;;;;;2.73;2.50;;;;;;;21.75;60.11;100740.91;5039040;28;20195;-74
2022/07/21 01:12:12;;;;;;;2.70;2.30;;;;;;;21.70;60.81;100735.06;5033037;28;20196;-73
2022/07/21 01:14:39;;;;;;;3.93;2.50;;;;;;;21.66;62.89;100730.94;5029853;28;20211;-74
2022/07/21 01:17:05;;;;;;;2.77;2.37;;;;;;;21.59;63.12;100727.03;5034229;28;20203;-74
2022/07/21 01:19:33;;;;;;;4.07;2.90;;;;;;;21.51;63.66;100732.91;5027980;28;20200;-74
2022/07/21 01:22:02;;;;;;;4.40;2.60;;;;;;;21.42;64.74;100720.22;5033208;28;20610;-73
2022/07/21 01:24:28;;;;;;;3.43;2.50;;;;;;;21.34;65.03;100726.09;5031045;28;20223;-73
2022/07/21 01:26:54;;;;;;;4.23;2.73;;;;;;;21.30;65.09;100731.69;5030435;28;20195;-73
2022/07/21 01:29:24;;;;;;;3.27;2.80;;;;;;;21.25;65.69;100724.09;5028969;28;20277;-73
2022/07/21 01:31:50;;;;;;;3.77;2.87;;;;;;;21.21;66.10;100727.03;5024065;28;20199;-73
2022/07/21 01:34:18;;;;;;;3.03;2.60;;;;;;;21.13;65.34;100724.94;5046343;28;20183;-73
2022/07/21 01:36:45;;;;;;;2.83;2.43;;;;;;;21.07;65.79;100723.56;5034289;28;20196;-73
2022/07/21 01:41:57;;;;;;;3.20;2.27;;;;;;;21.01;68.69;100731.91;5011329;28;20208;-73
2022/07/21 01:44:24;;;;;;;3.17;2.50;;;;;;;20.96;69.77;100726.91;5021413;28;20685;-73
2022/07/21 01:46:52;;;;;;;3.47;2.40;;;;;;;20.91;71.24;100722.88;5033671;28;20199;-73
2022/07/21 01:49:21;;;;;;;3.07;2.60;;;;;;;20.87;70.35;100729.38;5021292;28;20192;-73
2022/07/21 01:51:48;;;;;;;3.13;2.47;;;;;;;20.84;71.11;100722.44;5028886;28;20664;-73
2022/07/21 01:54:17;;;;;;;3.87;2.50;;;;;;;20.77;70.26;100729.13;5029206;28;20198;-73
2022/07/21 01:56:44;;;;;;;3.80;2.63;;;;;;;20.74;70.67;100729.34;5029840;28;20593;-73
2022/07/21 01:59:10;;;;;;;5.23;2.67;;;;;;;20.72;70.48;100732.09;5034061;28;20209;-73
2022/07/21 02:01:36;;;;;;;3.43;2.43;;;;;;;20.70;71.77;100722.53;5029768;28;20188;-75
2022/07/21 02:04:05;;;;;;;2.60;2.33;;;;;;;20.65;68.99;100720.22;5020897;28;20217;-76
2022/07/21 02:06:32;;;;;;;3.57;2.33;;;;;;;20.64;69.40;100720.31;5028530;28;20318;-76
2022/07/21 02:08:59;;;;;;;4.17;2.57;;;;;;;20.60;70.48;100724.94;5028480;28;20617;-76
2022/07/21 02:11:27;;;;;;;4.33;2.53;;;;;;;20.58;70.80;100717.09;5031766;28;21814;-76
2022/07/21 02:13:53;;;;;;;2.87;2.17;;;;;;;20.54;71.58;100714.72;5032320;28;20230;-76
2022/07/21 02:16:20;;;;;;;3.47;2.80;;;;;;;20.50;70.95;100708.78;5035895;28;20203;-75
2022/07/21 02:18:46;;;;;;;4.23;2.47;;;;;;;20.46;71.30;100707.31;5027331;28;20220;-76
2022/07/21 02:21:13;;;;;;;2.97;2.50;;;;;;;20.44;72.36;100703.91;5021262;28;20558;-76
2022/07/21 02:23:39;;;;;;;4.73;2.90;;;;;;;20.39;72.16;100713.97;5011382;28;20230;-76
2022/07/21 02:26:06;;;;;;;4.33;2.50;;;;;;;20.34;72.48;100721.38;5030989;28;20202;-76
2022/07/21 02:28:34;;;;;;;5.47;2.83;;;;;;;20.32;73.41;100724.09;5021462;28;20223;-76
2022/07/21 02:31:00;;;;;;;3.40;2.93;;;;;;;20.27;73.55;100720.06;5019526;28;20204;-76
2022/07/21 02:33:27;;;;;;;2.97;2.53;;;;;;;20.26;73.01;100731.59;5032913;28;20565;-76
2022/07/21 02:35:53;;;;;;;3.23;2.40;;;;;;;20.24;73.22;100724.63;5028308;28;20192;-76
2022/07/21 02:38:20;;;;;;;4.43;2.30;;;;;;;20.31;70.17;100718.91;5032717;28;20692;-76
2022/07/21 02:40:46;;;;;;;3.53;2.37;;;;;;;20.39;68.76;100717.47;5032678;28;20206;-76
2022/07/21 02:43:13;;;;;;;3.43;2.37;;;;;;;20.57;67.11;100719.84;5032552;28;20210;-76
2022/07/21 02:45:43;;;;;;;2.40;2.00;;;;;;;20.61;67.58;100729.25;5026750;28;20726;-76
2022/07/21 02:48:11;;;;;;;2.93;2.10;;;;;;;20.63;66.69;100734.50;5019642;28;20269;-76
2022/07/21 02:50:39;;;;;;;3.17;2.20;;;;;;;20.69;65.61;100729.66;5036734;28;20192;-76
2022/07/21 02:53:08;;;;;;;2.97;2.40;;;;;;;20.73;65.23;100732.94;5034804;28;20203;-76
2022/07/21 02:55:36;;;;;;;2.43;2.07;;;;;;;20.84;65.39;100727.75;5040256;28;20214;-76
2022/07/21 02:58:08;;;;;;;3.67;2.27;;;;;;;20.86;63.76;100731.16;5043846;28;20989;-76
2022/07/21 03:00:37;;;;;;;4.60;2.07;;;;;;;20.94;63.66;100734.13;5032486;28;20246;-76
2022/07/21 03:03:05;;;;;;;3.07;2.00;;;;;;;20.99;63.20;100745.25;5033939;28;20693;-76
2022/07/21 03:05:32;;;;;;;3.03;2.20;;;;;;;21.03;65.49;100756.50;5030542;28;20219;-76
2022/07/21 03:07:59;;;;;;;4.17;2.27;;;;;;;21.03;64.90;100758.31;5034216;28;20216;-76
2022/07/21 03:10:25;;;;;;;5.80;2.23;;;;;;;21.02;65.66;100756.59;5038613;28;20210;-76
2022/07/21 03:12:52;;;;;;;3.10;1.97;;;;;;;21.02;63.99;100760.13;5031944;28;20200;-76
2022/07/21 03:15:18;;;;;;;2.80;2.00;;;;;;;21.08;63.61;100765.00;5021007;28;20189;-76
2022/07/21 03:17:45;;;;;;;3.10;2.17;;;;;;;21.13;62.46;100762.03;5034324;28;20614;-76
2022/07/21 03:20:13;;;;;;;3.20;1.90;;;;;;;21.24;61.49;100761.31;5032394;28;20303;-76
2022/07/21 03:22:40;;;;;;;4.43;2.00;;;;;;;21.29;61.78;100767.13;5010826;28;20196;-76
2022/07/21 03:25:07;;;;;;;3.70;2.10;;;;;;;21.34;61.83;100765.88;5039311;28;20577;-76
2022/07/21 03:27:36;;;;;;;2.67;2.30;;;;;;;21.36;62.30;100768.41;5031041;28;20238;-76
2022/07/21 03:30:03;;;;;;;2.10;1.90;;;;;;;21.40;61.06;100769.03;5032739;28;20199;-76
2022/07/21 03:32:30;;;;;;;3.80;2.23;;;;;;;21.42;61.19;100767.13;5032891;28;20204;-76
2022/07/21 03:34:56;;;;;;;3.37;1.87;;;;;;;21.46;60.69;100765.97;5040481;28;20195;-73
2022/07/21 03:37:24;;;;;;;2.13;1.90;;;;;;;21.50;60.61;100772.78;5027638;28;20216;-73
2022/07/21 03:39:50;;;;;;;2.83;2.30;;;;;;;21.51;63.30;100771.81;5028782;28;20195;-74
2022/07/21 03:42:17;;;;;;;2.43;2.03;;;;;;;21.53;61.95;100777.91;5030850;28;20555;-73
2022/07/21 03:44:43;;;;;;;2.27;2.00;;;;;;;21.59;61.13;100779.25;5031176;28;20212;-73
2022/07/21 03:47:09;;;;;;;2.90;2.10;;;;;;;21.62;61.34;100771.94;5029778;28;20537;-73
2022/07/21 03:49:36;;;;;;;3.03;2.00;;;;;;;21.67;60.36;100775.13;5032386;28;20690;-73
2022/07/21 03:52:03;;;;;;;2.53;2.10;;;;;;;21.71;59.53;100789.84;5033022;28;20234;-73
2022/07/21 03:54:31;;;;;;;2.97;2.20;;;;;;;21.75;60.19;100780.72;5042691;28;20266;-74
2022/07/21 03:56:57;;;;;;;4.00;2.10;;;;;;;21.80;60.09;100787.50;5029783;28;20188;-74
2022/07/21 03:59:24;;;;;;;2.73;2.00;;;;;;;21.84;59.18;100784.50;5032038;28;20208;-74
2022/07/21 04:01:50;;;;;;;3.97;1.90;;;;;;;21.88;60.07;100795.75;5025230;28;20208;-74
2022/07/21 04:04:16;;;;;;;2.17;1.90;;;;;;;21.92;60.60;100802.56;5032015;28;20215;-74
2022/07/21 04:06:43;;;;;;;3.30;1.90;;;;;;;21.94;60.45;100795.34;5031669;28;20196;-74
2022/07/21 04:09:10;;;;;;;2.53;2.20;;;;;;;22.00;60.36;100796.69;5024957;28;20677;-74
2022/07/21 04:11:38;;;;;;;3.03;1.83;;;;;;;22.03;61.78;100799.97;5030940;28;20196;-74
2022/07/21 04:14:04;;;;;;;2.50;2.10;;;;;;;22.05;61.19;100806.03;5030163;28;20196;-74
2022/07/21 04:16:31;;;;;;;2.10;1.90;;;;;;;22.03;60.89;100807.94;5029994;28;20200;-73
2022/07/21 04:18:57;;;;;;;2.23;2.00;;;;;;;22.06;59.58;100807.72;5024374;28;20227;-74
2022/07/21 04:21:23;;;;;;;2.03;1.87;;;;;;;22.08;60.65;100813.78;5028336;28;20205;-74
2022/07/21 04:23:50;;;;;;;2.67;1.97;;;;;;;22.08;60.54;100808.47;5025082;28;20206;-74
2022/07/21 04:26:16;;;;;;;2.47;2.07;;;;;;;22.12;59.57;100817.06;5038935;28;20219;-76
2022/07/21 04:28:44;;;;;;;4.53;2.33;;;;;;;22.11;61.59;100813.56;5032339;28;20221;-76
2022/07/21 04:31:11;;;;;;;2.80;2.00;;;;;;;22.08;60.90;100815.59;5039411;28;20207;-76
2022/07/21 04:33:37;;;;;;;2.20;1.90;;;;;;;22.10;61.25;100822.47;5025174;28;20540;-76
2022/07/21 04:36:04;;;;;;;2.33;1.97;;;;;;;22.09;60.88;100823.44;5036533;28;20191;-76
2022/07/21 04:38:31;;;;;;;5.23;2.17;;;;;;;22.11;61.49;100824.19;5022768;28;20227;-77
2022/07/21 04:40:57;;;;;;;2.40;2.03;;;;;;;22.08;61.60;100826.22;5030480;28;20203;-76
2022/07/21 04:43:24;;;;;;;3.50;2.43;;;;;;;22.05;61.38;100837.03;5030384;28;20653;-76
2022/07/21 04:45:52;;;;;;;2.07;1.87;;;;;;;22.04;62.89;100838.84;5031493;28;20715;-76
2022/07/21 04:48:18;;;;;;;3.80;2.30;;;;;;;22.01;63.75;100840.88;5030823;28;20216;-76
2022/07/21 04:50:45;;;;;;;2.50;2.20;;;;;;;21.96;63.90;100846.50;5028015;28;20629;-76
2022/07/21 04:53:11;;;;;;;2.70;2.13;;;;;;;21.93;63.29;100850.25;5018109;28;20615;-76
2022/07/21 04:55:38;;;;;;;3.13;2.43;;;;;;;21.94;63.55;100856.38;5027427;28;20395;-76
2022/07/21 04:58:04;;;;;;;3.10;2.33;;;;;;;21.91;64.57;100862.75;5032510;28;20211;-76
2022/07/21 05:00:30;;;;;;;4.20;2.60;;;;;;;21.89;65.02;100862.00;5019493;28;20203;-74
2022/07/21 05:02:59;;;;;;;3.97;2.63;;;;;;;21.90;65.32;100862.88;5022335;28;20204;-74
2022/07/21 05:05:25;;;;;;;6.17;2.77;;;;;;;21.91;66.63;100867.22;5019425;28;20209;-74
2022/07/21 05:07:51;;;;;;;4.43;2.80;;;;;;;21.99;66.61;100862.22;5016002;28;20217;-74
2022/07/21 05:10:18;;;;;;;6.40;2.60;;;;;;;22.12;68.57;100864.84;5030628;28;20196;-74
2022/07/21 05:12:45;;;;;;;3.63;2.80;;;;;;;22.22;69.15;100875.69;5024220;28;20680;-74
2022/07/21 05:15:13;;;;;;;3.73;2.60;;;;;;;22.23;68.10;100869.41;5025540;28;20219;-73
2022/07/21 05:17:40;;;;;;;5.50;2.80;;;;;;;22.28;67.87;100864.63;5024660;28;20312;-76
2022/07/21 05:20:09;;;;;;;3.67;3.37;;;;;;;22.28;69.49;100875.25;5034939;28;20692;-76
2022/07/21 05:22:36;;;;;;;4.87;3.10;;;;;;;22.33;69.12;100872.28;5037654;28;20206;-74
2022/07/21 05:25:03;;;;;;;7.73;3.37;;;;;;;22.39;71.72;100870.03;5032984;28;20372;-74
2022/07/21 05:27:29;;;;;;;4.80;3.37;;;;;;;22.50;70.89;100864.78;5007662;28;20255;-74
2022/07/21 05:29:56;;;;;;;3.47;3.07;;;;;;;22.64;68.99;100865.59;5013023;28;21160;-74
2022/07/21 05:32:23;;;;;;;3.90;3.20;;;;;;;22.77;68.28;100866.38;5023234;28;20198;-74
2022/07/21 05:34:49;;;;;;;5.93;3.50;;;;;;;22.94;68.55;100851.84;5029993;28;20199;-74
2022/07/21 05:37:17;;;;;;;5.20;3.80;;;;;;;23.08;67.96;100857.97;5025657;28;20631;-74
2022/07/21 05:39:43;;;;;;;6.27;3.70;;;;;;;23.20;66.21;100852.59;5026726;28;20192;-74
2022/07/21 05:42:10;;;;;;;4.93;3.63;;;;;;;23.37;66.64;100855.75;5026458;28;20686;-74
2022/07/21 05:44:36;;;;;;;4.30;3.63;;;;;;;23.55;64.49;100853.50;5028999;28;20195;-74
2022/07/21 05:47:03;;;;;;;6.70;3.57;;;;;;;23.65;62.84;100851.81;5012375;28;20661;-74
2022/07/21 05:49:29;;;;;;;7.80;4.00;;;;;;;23.72;64.38;100853.03;5027828;28;20203;-74
2022/07/21 05:51:56;;;;;;;6.15;3.83;;;;;;;23.81;65.16;100851.50;5026330;28;20678;-73
2022/07/21 05:54:23;;;;;;;4.68;3.85;;;;;;;23.91;60.95;100851.63;5029533;28;20210;-74
2022/07/21 05:56:50;;;;;;;4.80;3.60;;;;;;;24.02;60.40;100858.78;5025881;28;20203;-74
2022/07/21 05:59:16;;;;;;;6.32;3.95;;;;;;;24.11;61.30;100850.88;5027826;28;20564;-74
2022/07/21 06:01:42;;;;;;;5.38;4.05;;;;;;;24.25;60.76;100859.59;5027737;28;20410;-74
2022/07/21 06:04:09;;;;;;;4.75;4.20;;;;;;;24.34;59.05;100862.38;5018593;28;20208;-74
2022/07/21 06:06:35;;;;;;;5.00;3.90;;;;;;;24.44;58.25;100850.97;5022792;28;20212;-74
2022/07/21 06:09:01;;;;;;;8.57;4.30;;;;;;;24.53;58.38;100855.53;5015488;28;20230;-74
2022/07/21 06:11:30;;;;;;;6.88;4.40;;;;;;;24.61;58.36;100858.47;5015054;28;20295;-74
2022/07/21 06:13:57;;;;;;;4.72;4.10;;;;;;;24.73;57.32;100857.47;5033336;28;20294;-74
2022/07/21 06:16:23;;;;;;;6.38;4.15;;;;;;;24.82;56.73;100863.84;5030513;28;20585;-74
2022/07/21 06:18:50;;;;;;;6.95;4.15;;;;;;;24.94;56.31;100872.63;5032870;28;20731;-74
2022/07/21 06:21:17;;;;;;;4.60;3.97;;;;;;;25.08;55.78;100868.81;5030532;28;20200;-74
2022/07/21 06:23:44;;;;;;;5.07;4.47;;;;;;;25.17;54.45;100869.88;5020249;28;20199;-74
2022/07/21 06:26:12;;;;;;;5.55;4.25;;;;;;;25.26;54.37;100862.00;5026490;28;20218;-74
2022/07/21 06:28:41;;;;;;;7.28;3.97;;;;;;;25.36;53.98;100870.03;5009103;28;20220;-74
2022/07/21 06:31:07;;;;;;;5.72;4.43;;;;;;;25.47;53.19;100875.34;5028194;28;20204;-74
2022/07/21 06:33:34;;;;;;;4.50;4.07;;;;;;;25.51;53.77;100881.25;5026514;28;20205;-74
2022/07/21 06:36:00;;;;;;;5.07;4.20;;;;;;;25.57;52.06;100874.53;5023874;28;20203;-74
2022/07/21 06:38:26;;;;;;;8.07;4.30;;;;;;;25.63;51.42;100880.19;5030084;28;20220;-74
2022/07/21 06:40:53;;;;;;;6.95;4.85;;;;;;;25.72;53.16;100886.56;5021263;28;20200;-74
2022/07/21 06:43:19;;;;;;;4.55;4.00;;;;;;;25.82;51.56;100892.81;5032324;28;20200;-74
2022/07/21 06:45:47;;;;;;;8.10;4.50;;;;;;;26.00;53.14;100887.72;5022218;28;20211;-74
2022/07/21 06:48:14;;;;;;;6.80;4.03;;;;;;;26.15;50.86;100898.88;5008311;28;20218;-74
2022/07/21 06:50:40;;;;;;;5.53;3.83;;;;;;;26.24;50.02;100899.91;5020936;28;20278;-74
2022/07/21 06:53:06;;;;;;;5.82;4.50;;;;;;;26.32;47.99;100909.94;5020659;28;20665;-74
2022/07/21 06:55:33;;;;;;;5.65;4.55;;;;;;;26.41;49.28;100901.91;5005825;28;20203;-74
2022/07/21 06:58:09;;;;;;;5.15;3.95;;;;;;;26.52;46.82;100900.13;5022045;28;20220;-74
2022/07/21 07:00:36;;;;;;;5.47;4.15;;;;;;;26.63;46.82;100910.72;5018799;28;20202;-74
2022/07/21 07:03:03;;;;;;;4.90;4.18;;;;;;;26.67;47.16;100903.31;5032119;28;20196;-74
2022/07/21 07:05:30;;;;;;;5.30;4.22;;;;;;;26.79;47.53;100899.53;5031627;28;20208;-74
2022/07/21 07:07:57;;;;;;;5.30;4.43;;;;;;;26.90;48.62;100899.38;5031992;28;20219;-74
2022/07/21 07:10:24;;;;;;;4.72;4.25;;;;;;;27.04;47.78;100903.47;5010699;28;20211;-74
2022/07/21 07:12:50;;;;;;;5.07;4.53;;;;;;;27.13;47.39;100899.94;5018573;28;20230;-74
2022/07/21 07:15:16;;;;;;;4.95;4.50;;;;;;;27.16;45.25;100906.84;5027258;28;20192;-74
2022/07/21 07:17:43;;;;;;;5.90;4.32;;;;;;;27.23;44.41;100912.47;5023334;28;20254;-74
2022/07/21 07:20:11;;;;;;;7.45;4.80;;;;;;;27.16;44.00;100902.34;5026389;28;20205;-74
2022/07/21 07:22:37;;;;;;;5.30;4.72;;;;;;;27.32;43.93;100903.63;5017236;28;20210;-74
2022/07/21 07:25:05;;;;;;;6.47;4.30;;;;;;;27.39;44.03;100908.25;5031921;28;20210;-74
2022/07/21 07:27:31;;;;;;;5.35;4.35;;;;;;;27.46;44.00;100907.69;5025518;28;20234;-74
2022/07/21 07:29:57;;;;;;;7.22;4.85;;;;;;;27.47;43.88;100909.38;5027245;28;20672;-74
2022/07/21 07:32:24;;;;;;;6.40;4.75;;;;;;;27.64;43.29;100914.00;5031056;28;20656;-74
2022/07/21 07:34:51;;;;;;;5.00;4.50;;;;;;;27.77;43.71;100908.31;5025184;28;20211;-74
2022/07/21 07:37:18;;;;;;;5.10;4.55;;;;;;;27.91;43.81;100907.88;5026439;28;20223;-74
2022/07/21 07:39:45;;;;;;;6.57;4.85;;;;;;;27.98;42.20;100910.81;5017587;28;20654;-74
2022/07/21 07:42:11;;;;;;;4.95;4.38;;;;;;;28.04;44.05;100904.91;5028179;28;20198;-74
2022/07/21 07:44:38;;;;;;;6.18;4.50;;;;;;;28.14;43.06;100910.19;5025397;28;20210;-74
2022/07/21 07:47:04;;;;;;;6.95;5.15;;;;;;;28.15;42.52;100909.22;5025787;28;20220;-74
2022/07/21 07:49:31;;;;;;;7.25;4.75;;;;;;;28.16;42.94;100918.94;5014738;28;20220;-74
2022/07/21 07:51:59;;;;;;;5.68;4.68;;;;;;;28.19;43.93;100920.47;5019822;28;20211;-74
2022/07/21 07:54:26;;;;;;;5.78;4.63;;;;;;;28.31;44.55;100921.97;5030670;28;20199;-74
2022/07/21 07:56:53;;;;;;;5.20;4.47;;;;;;;28.40;41.73;100922.91;5012422;28;20196;-74
2022/07/21 07:59:19;;;;;;;6.40;4.32;;;;;;;28.50;41.04;100934.44;5022988;28;20193;-74
2022/07/21 08:01:46;;;;;;;5.63;4.50;;;;;;;28.54;42.30;100927.81;5011877;28;20196;-74
2022/07/21 08:04:14;;;;;;;7.05;4.88;;;;;;;28.61;40.92;100926.22;5020588;28;20282;-74
2022/07/21 08:06:40;;;;;;;5.28;4.40;;;;;;;28.74;41.09;100920.47;5024465;28;20223;-74
2022/07/21 08:09:07;;;;;;;5.15;4.45;;;;;;;28.82;41.10;100925.09;5018991;28;20270;-74
2022/07/21 08:11:35;;;;;;;6.50;4.70;;;;;;;28.89;40.46;100918.97;5011905;28;20295;-74
2022/07/21 08:14:01;;;;;;;5.00;4.30;;;;;;;29.05;41.80;100912.06;5026552;28;20199;-74
2022/07/21 08:16:28;;;;;;;5.63;4.32;;;;;;;29.14;43.19;100924.56;5028902;28;20204;-74
2022/07/21 08:18:54;;;;;;;6.57;4.55;;;;;;;29.17;40.96;100929.66;5006847;28;20269;-74
2022/07/21 08:21:21;;;;;;;5.38;4.57;;;;;;;29.08;41.07;100928.72;5018539;28;20204;-74
2022/07/21 08:23:47;;;;;;;5.95;4.40;;;;;;;29.18;41.89;100931.34;5011504;28;20215;-74
2022/07/21 08:26:14;;;;;;;5.00;4.25;;;;;;;29.20;40.64;100933.84;5025049;28;20212;-74
2022/07/21 08:28:41;;;;;;;5.50;4.50;;;;;;;29.29;41.08;100935.63;5027884;28;20216;-74
2022/07/21 08:31:08;;;;;;;4.70;3.90;;;;;;;29.43;40.60;100934.25;5029664;28;20199;-74
2022/07/21 08:33:35;;;;;;;5.22;4.18;;;;;;;29.58;39.77;100937.19;5023916;28;20560;-74
2022/07/21 08:36:02;;;;;;;6.40;4.30;;;;;;;29.64;39.88;100940.09;5028245;28;20196;-74
2022/07/21 08:38:28;;;;;;;5.95;4.45;;;;;;;29.82;38.91;100939.25;5020658;28;20235;-74
2022/07/21 08:40:55;;;;;;;4.97;4.07;;;;;;;29.91;40.16;100932.91;5024151;28;20564;-74
2022/07/21 08:43:22;;;;;;;4.78;4.18;;;;;;;30.09;39.77;100924.78;5029532;28;20204;-74
2022/07/21 08:45:51;;;;;;;7.28;4.30;;;;;;;30.24;40.36;100932.22;5018255;28;20213;-74
2022/07/21 08:48:21;;;;;;;5.38;4.03;;;;;;;30.36;40.09;100923.75;5008003;28;20251;-74
2022/07/21 08:50:48;;;;;;;4.60;3.80;;;;;;;30.37;38.79;100924.59;5017488;28;20214;-74
2022/07/21 08:53:14;;;;;;;5.03;4.10;;;;;;;30.37;39.10;100927.28;5021839;28;20672;-74
2022/07/21 08:55:41;;;;;;;5.78;4.10;;;;;;;30.42;39.15;100930.31;5009448;28;20204;-74
2022/07/21 08:58:08;;;;;;;4.80;4.10;;;;;;;30.65;39.61;100935.09;5024393;28;20227;-74
2022/07/21 09:00:35;;;;;;;4.53;4.03;;;;;;;30.63;37.77;100934.44;5022319;28;20203;-74
2022/07/21 09:03:17;;;;;;;4.70;3.90;;;;;;;30.84;38.54;100934.81;5022700;28;20721;-74
2022/07/21 09:05:58;;;;;;;4.80;3.83;;;;;;;31.01;38.57;100933.03;5021893;28;20197;-74
2022/07/21 09:08:30;;;;;;;3.85;3.45;;;;;;;31.10;38.66;100937.41;5021672;28;20238;-74
2022/07/21 09:11:08;;;;;;;4.35;3.95;;;;;;;31.06;37.70;100945.97;5021459;28;20207;-75
2022/07/21 09:13:35;;;;;;;4.25;3.08;;;;;;;31.12;37.39;100940.78;5009119;28;20652;-74
2022/07/21 09:16:01;;;;;;;4.22;3.78;;;;;;;31.15;37.32;100944.97;5003169;28;20196;-75
2022/07/21 09:18:29;;;;;;;4.60;3.85;;;;;;;31.11;36.99;100940.94;5026250;28;20273;-75
2022/07/21 09:20:58;;;;;;;4.50;3.42;;;;;;;31.06;37.18;100943.28;5015958;28;20197;-74
2022/07/21 09:23:26;;;;;;;4.80;3.40;;;;;;;31.17;37.52;100944.78;4998522;28;20218;-74
2022/07/21 09:25:54;;;;;;;3.70;3.35;;;;;;;31.09;37.91;100940.25;5018193;28;20707;-74
2022/07/21 09:28:22;;;;;;;6.30;2.85;;;;;;;30.99;37.48;100942.25;5028173;28;20230;-73
2022/07/21 09:31:00;;;;;;;4.35;3.50;;;;;;;31.07;37.47;100945.81;5006429;28;20389;-74
2022/07/21 09:33:32;;;;;;;3.85;3.22;;;;;;;31.11;37.67;100943.63;5025756;28;20206;-75
2022/07/21 09:36:05;;;;;;;3.90;3.00;;;;;;;31.16;37.18;100943.13;5023114;28;20619;-74
2022/07/21 09:38:33;;;;;;;3.53;3.22;;;;;;;31.23;37.14;100946.84;5019685;28;20235;-75
2022/07/21 09:41:08;;;;;;;3.95;3.33;;;;;;;31.14;38.66;100943.28;5019886;28;20200;-73
2022/07/21 09:43:41;;;;;;;4.53;2.92;;;;;;;30.97;37.42;100946.97;5026186;28;20678;-75
2022/07/21 09:46:10;;;;;;;3.65;2.92;;;;;;;30.86;37.90;100946.25;5029438;28;20215;-74
2022/07/21 09:48:39;;;;;;;3.40;3.10;;;;;;;31.03;37.24;100951.69;5017867;28;20220;-74
2022/07/21 09:51:28;;;;;;;3.58;3.28;;;;;;;30.97;37.12;100953.19;5022489;28;20212;-75
2022/07/21 09:53:58;;;;;;;4.78;3.80;;;;;;;31.15;38.25;100944.97;5017611;28;20188;-74
2022/07/21 09:56:26;;;;;;;4.00;3.17;;;;;;;31.31;37.20;100947.69;5028574;28;20207;-75
2022/07/21 09:58:55;;;;;;;3.55;3.25;;;;;;;31.36;37.87;100944.47;5010637;28;20591;-75
2022/07/21 10:01:22;;;;;;;3.28;2.97;;;;;;;31.47;37.31;100946.00;5028697;28;20283;-74
2022/07/21 10:03:51;;;;;;;3.90;3.50;;;;;;;31.62;37.52;100948.88;5024383;28;20203;-74
2022/07/21 10:06:20;;;;;;;4.60;3.88;;;;;;;31.70;36.00;100955.09;5028528;28;20231;-74
2022/07/21 10:08:47;;;;;;;4.47;3.83;;;;;;;31.72;36.83;100952.22;5019963;28;20224;-74
2022/07/21 10:11:14;;;;;;;4.38;3.55;;;;;;;31.73;36.74;100942.28;5019216;28;20200;-75
2022/07/21 10:13:40;;;;;;;4.45;3.47;;;;;;;31.93;37.23;100943.59;5018665;28;20197;-75
2022/07/21 10:16:09;;;;;;;4.90;3.10;;;;;;;32.01;36.11;100943.53;5014289;28;20215;-75
2022/07/21 10:18:40;;;;;;;5.40;3.30;;;;;;;32.18;36.86;100944.38;5022941;28;20216;-75
2022/07/21 10:21:22;;;;;;;5.28;3.13;;;;;;;32.29;35.97;100942.31;5028313;28;20203;-75
2022/07/21 10:23:54;;;;;;;4.47;3.53;;;;;;;32.38;36.88;100936.72;5024632;28;20188;-75
2022/07/21 10:26:20;;;;;;;3.20;2.90;;;;;;;32.53;35.40;100935.97;5019456;28;20213;-75
2022/07/21 10:28:47;;;;;;;3.50;3.20;;;;;;;32.59;35.20;100933.41;5027302;28;20220;-75
2022/07/21 10:31:16;;;;;;;3.80;3.13;;;;;;;32.62;35.77;100926.84;5022951;28;20265;-75
2022/07/21 10:33:57;;;;;;;3.60;3.05;;;;;;;32.72;35.85;100932.00;5026156;28;20303;-74
2022/07/21 10:36:42;;;;;;;3.38;3.08;;;;;;;32.73;35.54;100922.91;5017877;28;20636;-74
2022/07/21 10:39:24;;;;;;;3.78;3.22;;;;;;;32.89;35.84;100927.34;5015496;28;20224;-74
2022/07/21 10:41:53;;;;;;;3.38;3.03;;;;;;;33.04;35.51;100933.66;5018403;28;20300;-74
2022/07/21 10:44:43;;;;;;;5.45;3.15;;;;;;;33.08;34.97;100932.25;5016045;28;20204;-74
2022/07/21 10:47:11;;;;;;;4.90;3.20;;;;;;;33.04;34.55;100930.13;5023086;28;20216;-75
2022/07/21 10:49:47;;;;;;;3.25;2.95;;;;;;;33.03;34.78;100929.25;5019893;28;20190;-74
2022/07/21 10:52:51;;;;;;;3.25;2.95;;;;;;;33.12;34.41;100920.09;5022899;28;20204;-74
2022/07/21 10:55:26;;;;;;;3.47;3.00;;;;;;;33.20;35.63;100914.63;5023344;28;20192;-75
2022/07/21 10:58:15;;;;;;;2.97;2.67;;;;;;;33.27;35.55;100916.63;5024234;28;20203;-75
2022/07/21 11:00:46;;;;;;;3.17;2.88;;;;;;;33.45;35.29;100916.28;5020137;28;20200;-75
2022/07/21 11:03:20;;;;;;;4.78;2.88;;;;;;;33.32;35.62;100923.16;5021993;28;20200;-74
2022/07/21 11:06:25;;;;;;;3.88;2.70;;;;;;;33.26;35.61;100921.16;5002179;28;20209;-75
2022/07/21 11:08:53;;;;;;;2.95;2.72;;;;;;;33.35;34.81;100922.78;5020735;28;20216;-74
2022/07/21 11:11:22;;;;;;;2.78;2.50;;;;;;;33.57;34.16;100917.50;5022456;28;20214;-74
2022/07/21 11:14:01;;;;;;;3.10;2.80;;;;;;;33.56;33.12;100916.69;5030558;28;20204;-75
2022/07/21 11:17:01;;;;;;;2.80;2.60;;;;;;;33.88;35.25;100920.09;5020245;28;20204;-75
2022/07/21 11:19:35;;;;;;;2.60;2.33;;;;;;;34.03;33.11;100920.06;5029394;28;20226;-74
2022/07/21 11:22:03;;;;;;;3.53;2.47;;;;;;;34.13;32.61;100917.09;5025162;28;20220;-75
2022/07/21 11:24:30;;;;;;;2.70;2.50;;;;;;;34.28;33.44;100917.09;5020356;28;20589;-74
2022/07/21 11:27:01;;;;;;;3.22;2.60;;;;;;;34.13;32.85;100915.22;5020580;28;20213;-75
2022/07/21 11:29:28;;;;;;;2.60;2.38;;;;;;;33.86;32.46;100903.22;5023459;28;20196;-75
2022/07/21 11:31:55;;;;;;;3.10;2.50;;;;;;;33.59;33.62;100916.28;5025827;28;20610;-75